createdAt,value
2022-08-03T00:00:40.315Z,99977.97
2022-08-03T00:03:09.238Z,99981.75
2022-08-03T00:05:40.131Z,99980.44
2022-08-03T00:08:28.642Z,99982.38
2022-08-03T00:10:57.133Z,99980.50
2022-08-03T00:13:25.766Z,99976.88
2022-08-03T00:15:54.961Z,99981.84
2022-08-03T00:18:23.320Z,99976.91
2022-08-03T00:20:53.241Z,99975.66
2022-08-03T00:23:21.653Z,99972.63
2022-08-03T00:25:50.329Z,99966.91
2022-08-03T00:28:19.071Z,99976.47
2022-08-03T00:30:47.952Z,99976.25
2022-08-03T00:33:17.264Z,99970.78
2022-08-03T00:35:51.068Z,99966.66
2022-08-03T00:38:22.113Z,99968.41
2022-08-03T00:40:51.134Z,99959.22
2022-08-03T00:43:19.735Z,99960.94
2022-08-03T00:45:48.385Z,99960.69
2022-08-03T00:48:33.332Z,99959.72
2022-08-03T00:51:02.704Z,99954.84
2022-08-03T00:53:35.756Z,99958.06
2022-08-03T00:56:04.439Z,99961.16
2022-08-03T00:58:32.725Z,99954.22
2022-08-03T01:01:01.599Z,99957.53
2022-08-03T01:03:31.860Z,99952.50
2022-08-03T01:06:08.673Z,99955.13
2022-08-03T01:08:52.974Z,99950.06
2022-08-03T01:11:30.891Z,99950.13
2022-08-03T01:14:19.029Z,99952.25
2022-08-03T01:16:57.977Z,99951.31
2022-08-03T01:19:43.839Z,99949.97
2022-08-03T01:22:38.333Z,99942.09
2022-08-03T01:25:26.047Z,99950.94
2022-08-03T01:28:07.857Z,99941.88
2022-08-03T01:30:42.177Z,99946.28
2022-08-03T01:33:18.862Z,99953.19
2022-08-03T01:35:53.583Z,99940.75
2022-08-03T01:38:28.352Z,99939.22
2022-08-03T01:40:58.536Z,99935.19
2022-08-03T01:44:27.509Z,99942.63
2022-08-03T01:46:24.020Z,99942.03
2022-08-03T01:48:52.903Z,99944.03
2022-08-03T01:51:23.929Z,99943.19
2022-08-03T01:54:14.689Z,99933.03
2022-08-03T01:56:46.721Z,99933.69
2022-08-03T01:59:18.041Z,99933.03
2022-08-03T02:02:19.547Z,99934.16
2022-08-03T02:04:40.559Z,99936.25
2022-08-03T02:07:10.858Z,99939.06
2022-08-03T02:09:41.998Z,99926.50
2022-08-03T02:12:12.430Z,99931.41
2022-08-03T02:14:44.212Z,99930.38
2022-08-03T02:17:15.349Z,99926.50
2022-08-03T02:19:44.956Z,99927.06
2022-08-03T02:22:15.596Z,99927.78
2022-08-03T02:24:44.532Z,99922.63
2022-08-03T02:27:23.307Z,99923.25
2022-08-03T02:29:57.425Z,99928.28
2022-08-03T02:32:33.719Z,99921.59
2022-08-03T02:35:04.865Z,99928.16
2022-08-03T02:37:38.159Z,99924.06
2022-08-03T02:40:14.146Z,99929.78
2022-08-03T02:42:45.070Z,99926.34
2022-08-03T02:45:15.822Z,99921.28
2022-08-03T02:47:53.938Z,99919.19
2022-08-03T02:50:26.156Z,99921.88
2022-08-03T02:52:56.049Z,99924.84
2022-08-03T02:55:27.237Z,99918.34
2022-08-03T02:57:56.743Z,99918.31
2022-08-03T03:00:31.427Z,99918.41
2022-08-03T03:03:06.356Z,99912.31
2022-08-03T03:05:55.448Z,99912.09
2022-08-03T03:08:28.449Z,99925.38
2022-08-03T03:11:00.630Z,99924.56
2022-08-03T03:13:31.425Z,99917.28
2022-08-03T03:16:03.473Z,99919.31
2022-08-03T03:18:35.856Z,99925.06
2022-08-03T03:21:05.144Z,99922.41
2022-08-03T03:23:37.025Z,99921.75
2022-08-03T03:26:07.036Z,99932.78
2022-08-03T03:28:38.061Z,99930.94
2022-08-03T03:31:07.254Z,99930.75
2022-08-03T03:33:37.766Z,99928.72
2022-08-03T03:36:08.467Z,99927.88
2022-08-03T03:38:37.865Z,99930.53
2022-08-03T03:41:06.835Z,99935.16
2022-08-03T03:43:35.373Z,99937.41
2022-08-03T03:46:04.641Z,99937.66
2022-08-03T03:48:33.170Z,99942.09
2022-08-03T03:51:03.412Z,99932.06
2022-08-03T03:53:31.921Z,99939.56
2022-08-03T03:56:02.510Z,99927.31
2022-08-03T03:58:33.913Z,99928.88
2022-08-03T04:01:02.607Z,99930.09
2022-08-03T04:03:33.931Z,99930.09
2022-08-03T04:06:21.600Z,99928.84
2022-08-03T04:09:07.735Z,99933.34
2022-08-03T04:11:41.620Z,99933.69
2022-08-03T04:14:14.464Z,99934.66
2022-08-03T04:16:47.429Z,99936.50
2022-08-03T04:19:23.350Z,99930.97
2022-08-03T04:21:58.666Z,99932.25
2022-08-03T04:24:35.095Z,99937.13
2022-08-03T04:27:07.225Z,99937.91
2022-08-03T04:29:46.450Z,99935.03
2022-08-03T04:32:19.044Z,99932.06
2022-08-03T04:34:48.480Z,99936.78
2022-08-03T04:37:26.294Z,99939.19
2022-08-03T04:39:57.875Z,99939.78
2022-08-03T04:42:28.694Z,99940.75
2022-08-03T04:45:01.413Z,99941.44
2022-08-03T04:47:33.460Z,99943.41
2022-08-03T04:50:03.524Z,99942.16
2022-08-03T04:52:35.062Z,99941.38
2022-08-03T04:55:03.381Z,99935.47
2022-08-03T04:57:31.746Z,99937.34
2022-08-03T05:00:03.022Z,99947.13
2022-08-03T05:02:32.807Z,99945.78
2022-08-03T05:05:01.635Z,99944.16
2022-08-03T05:07:35.937Z,99947.22
2022-08-03T05:10:15.706Z,99948.16
2022-08-03T05:12:46.879Z,99945.66
2022-08-03T05:15:16.556Z,99945.44
2022-08-03T05:17:44.892Z,99955.50
2022-08-03T05:20:13.609Z,99951.50
2022-08-03T05:22:45.030Z,99959.28
2022-08-03T05:25:19.113Z,99958.53
2022-08-03T05:27:49.419Z,99956.88
2022-08-03T05:30:31.556Z,99960.66
2022-08-03T05:33:04.668Z,99956.88
2022-08-03T05:35:57.604Z,99949.41
2022-08-03T05:38:28.477Z,99954.38
2022-08-03T05:41:22.906Z,99942.28
2022-08-03T05:43:47.940Z,99952.56
2022-08-03T05:46:16.603Z,99939.81
2022-08-03T05:48:45.722Z,99949.88
2022-08-03T05:51:14.228Z,99947.84
2022-08-03T05:53:44.371Z,99951.41
2022-08-03T05:56:16.201Z,99952.00
2022-08-03T05:58:47.251Z,99957.94
2022-08-03T06:01:17.559Z,99960.94
2022-08-03T06:03:46.510Z,99954.47
2022-08-03T06:06:15.079Z,99956.66
2022-08-03T06:08:44.448Z,99956.25
2022-08-03T06:11:14.457Z,99960.66
2022-08-03T06:13:45.218Z,99962.38
2022-08-03T06:16:13.854Z,99965.19
2022-08-03T06:18:42.321Z,99965.31
2022-08-03T06:21:15.159Z,99954.47
2022-08-03T06:23:54.368Z,99953.63
2022-08-03T06:26:27.929Z,99947.13
2022-08-03T06:28:57.434Z,99946.91
2022-08-03T06:31:32.809Z,99943.53
2022-08-03T06:34:32.474Z,99949.94
2022-08-03T06:36:58.567Z,99948.19
2022-08-03T06:39:30.566Z,99953.38
2022-08-03T06:42:00.242Z,99947.34
2022-08-03T06:44:28.586Z,99950.03
2022-08-03T06:46:56.984Z,99944.09
2022-08-03T06:49:25.685Z,99955.63
2022-08-03T06:52:05.249Z,99945.00
2022-08-03T06:54:43.711Z,99951.25
2022-08-03T06:57:13.381Z,99934.25
2022-08-03T07:00:06.470Z,99945.06
2022-08-03T07:02:31.209Z,99942.84
2022-08-03T07:04:59.697Z,99944.50
2022-08-03T07:07:28.233Z,99948.63
2022-08-03T07:09:58.189Z,99949.09
2022-08-03T07:12:30.252Z,99945.94
2022-08-03T07:15:02.577Z,99952.72
2022-08-03T07:17:34.925Z,99960.94
2022-08-03T07:20:07.890Z,99960.75
2022-08-03T07:22:36.899Z,99956.31
2022-08-03T07:25:06.330Z,99951.94
2022-08-03T07:27:36.198Z,99955.53
2022-08-03T07:30:09.382Z,99954.56
2022-08-03T07:32:37.726Z,99955.94
2022-08-03T07:35:24.652Z,99963.97
2022-08-03T07:37:54.564Z,99964.44
2022-08-03T07:40:28.162Z,99959.69
2022-08-03T07:43:03.276Z,99964.03
2022-08-03T07:45:32.575Z,99953.16
2022-08-03T07:48:01.489Z,99952.22
2022-08-03T07:50:30.407Z,99950.84
2022-08-03T07:52:59.825Z,99960.16
2022-08-03T07:55:30.299Z,99955.63
2022-08-03T07:58:12.094Z,99956.50
2022-08-03T08:00:40.950Z,99950.13
2022-08-03T08:03:10.081Z,99950.19
2022-08-03T08:05:38.947Z,99948.63
2022-08-03T08:08:08.355Z,99945.78
2022-08-03T08:10:37.459Z,99954.31
2022-08-03T08:13:07.409Z,99949.81
2022-08-03T08:15:36.132Z,99950.50
2022-08-03T08:18:12.753Z,99947.59
2022-08-03T08:20:41.528Z,99947.88
2022-08-03T08:23:29.857Z,99955.06
2022-08-03T08:26:00.367Z,99947.28
2022-08-03T08:28:33.490Z,99952.72
2022-08-03T08:31:02.597Z,99951.41
2022-08-03T08:36:19.997Z,99955.38
2022-08-03T08:38:48.725Z,99956.88
2022-08-03T08:41:17.637Z,99954.22
2022-08-03T08:43:49.553Z,99955.94
2022-08-03T08:46:23.497Z,99951.72
2022-08-03T08:48:54.155Z,99955.19
2022-08-03T08:51:54.924Z,99947.22
2022-08-03T08:54:19.357Z,99952.06
2022-08-03T08:56:49.327Z,99953.09
2022-08-03T08:59:20.712Z,99953.97
2022-08-03T09:01:49.193Z,99960.38
2022-08-03T09:04:18.108Z,99948.31
2022-08-03T09:07:04.463Z,99954.75
2022-08-03T09:10:05.941Z,99962.84
2022-08-03T09:12:42.384Z,99955.81
2022-08-03T09:15:32.263Z,99959.03
2022-08-03T09:18:06.283Z,99955.81
2022-08-03T09:20:36.964Z,99959.06
2022-08-03T09:23:26.301Z,99962.28
2022-08-03T09:26:01.639Z,99958.47
2022-08-03T09:29:01.304Z,99958.19
2022-08-03T09:31:35.017Z,99960.03
2022-08-03T09:34:05.926Z,99961.94
2022-08-03T09:36:41.194Z,99965.34
2022-08-03T09:39:12.123Z,99965.00
2022-08-03T09:41:42.700Z,99957.38
2022-08-03T09:44:24.581Z,99952.56
2022-08-03T09:46:57.400Z,99949.34
2022-08-03T09:49:26.320Z,99953.00
2022-08-03T09:52:33.519Z,99953.38
2022-08-03T09:54:45.220Z,99950.69
2022-08-03T09:57:23.906Z,99950.75
2022-08-03T10:00:04.637Z,99954.78
2022-08-03T10:02:43.944Z,99955.50
2022-08-03T10:05:17.705Z,99948.44
2022-08-03T10:07:50.951Z,99950.47
2022-08-03T10:10:30.225Z,99945.59
2022-08-03T10:13:02.216Z,99938.38
2022-08-03T10:16:23.957Z,99940.28
2022-08-03T10:18:20.397Z,99943.13
2022-08-03T10:20:54.339Z,99944.31
2022-08-03T10:23:24.907Z,99935.75
2022-08-03T10:25:59.316Z,99939.28
2022-08-03T10:28:32.952Z,99932.59
2022-08-03T10:31:01.850Z,99922.00
2022-08-03T10:33:51.967Z,99928.03
2022-08-03T10:36:25.121Z,99925.19
2022-08-03T10:38:57.023Z,99929.25
2022-08-03T10:41:33.902Z,99920.19
2022-08-03T10:44:12.036Z,99918.22
2022-08-03T10:46:45.023Z,99920.69
2022-08-03T10:49:33.820Z,99919.97
2022-08-03T10:52:13.194Z,99910.91
2022-08-03T10:55:07.535Z,99904.41
2022-08-03T10:57:56.205Z,99909.63
2022-08-03T11:00:30.249Z,99901.41
2022-08-03T11:03:14.405Z,99904.38
2022-08-03T11:05:45.790Z,99892.69
2022-08-03T11:08:31.891Z,99889.06
2022-08-03T11:11:03.793Z,99896.38
2022-08-03T11:13:33.968Z,99893.41
2022-08-03T11:16:21.958Z,99890.50
2022-08-03T11:18:59.140Z,99889.97
2022-08-03T11:22:00.201Z,99884.16
2022-08-03T11:25:00.823Z,99888.44
2022-08-03T11:27:32.802Z,99881.50
2022-08-03T11:30:08.211Z,99886.84
2022-08-03T11:32:58.966Z,99891.00
2022-08-03T11:35:30.598Z,99890.06
2022-08-03T11:38:13.316Z,99884.66
2022-08-03T11:40:45.233Z,99884.31
2022-08-03T11:43:46.856Z,99899.56
2022-08-03T11:46:28.674Z,99890.16
2022-08-03T11:49:10.403Z,99892.84
2022-08-03T11:51:40.451Z,99876.25
2022-08-03T11:54:11.407Z,99889.97
2022-08-03T11:56:47.822Z,99885.16
2022-08-03T11:59:21.542Z,99883.66
2022-08-03T12:01:51.786Z,99881.88
2022-08-03T12:04:20.436Z,99882.41
2022-08-03T12:07:01.716Z,99878.88
2022-08-03T12:09:31.403Z,99880.25
2022-08-03T12:12:01.235Z,99878.47
2022-08-03T12:14:50.786Z,99879.25
2022-08-03T12:17:19.555Z,99870.75
2022-08-03T12:19:48.237Z,99871.13
2022-08-03T12:22:17.759Z,99862.72
2022-08-03T12:24:47.982Z,99862.94
2022-08-03T12:27:26.375Z,99863.66
2022-08-03T12:29:58.188Z,99863.38
2022-08-03T12:32:28.917Z,99866.69
2022-08-03T12:35:00.830Z,99868.22
2022-08-03T12:37:30.679Z,99870.34
2022-08-03T12:40:10.147Z,99869.63
2022-08-03T12:42:40.896Z,99863.84
2022-08-03T12:45:24.171Z,99861.84
2022-08-03T12:47:55.006Z,99858.47
2022-08-03T12:50:31.343Z,99861.38
2022-08-03T12:53:01.371Z,99863.75
2022-08-03T12:55:57.586Z,99857.94
2022-08-03T12:58:36.589Z,99857.47
2022-08-03T13:01:10.404Z,99853.31
2022-08-03T13:03:45.849Z,99844.31
2022-08-03T13:06:20.902Z,99848.84
2022-08-03T13:08:51.317Z,99849.03
2022-08-03T13:11:50.635Z,99850.13
2022-08-03T13:14:20.158Z,99846.53
2022-08-03T13:16:49.754Z,99846.56
2022-08-03T13:19:18.239Z,99841.91
2022-08-03T13:21:53.674Z,99841.72
2022-08-03T13:24:34.113Z,99838.41
2022-08-03T13:28:02.366Z,99834.78
2022-08-03T13:29:55.429Z,99835.78
2022-08-03T13:32:24.156Z,99833.16
2022-08-03T13:34:52.685Z,99839.19
2022-08-03T13:37:21.700Z,99837.00
2022-08-03T13:39:59.192Z,99828.78
2022-08-03T13:42:31.317Z,99826.16
2022-08-03T13:45:02.060Z,99830.47
2022-08-03T13:47:30.494Z,99827.03
2022-08-03T13:50:01.899Z,99819.03
2022-08-03T13:52:36.460Z,99820.66
2022-08-03T13:55:07.547Z,99821.84
2022-08-03T13:58:12.013Z,99818.06
2022-08-03T14:00:28.908Z,99817.53
2022-08-03T14:03:06.722Z,99812.34
2022-08-03T14:05:38.760Z,99816.91
2022-08-03T14:08:08.696Z,99810.31
2022-08-03T14:10:39.372Z,99812.41
2022-08-03T14:13:09.961Z,99809.63
2022-08-03T14:15:38.847Z,99806.44
2022-08-03T14:18:15.262Z,99803.59
2022-08-03T14:20:49.090Z,99789.13
2022-08-03T14:23:20.443Z,99796.00
2022-08-03T14:25:52.298Z,99790.31
2022-08-03T14:28:24.759Z,99796.88
2022-08-03T14:30:54.066Z,99776.75
2022-08-03T14:33:23.272Z,99781.38
2022-08-03T14:35:52.507Z,99780.31
2022-08-03T14:38:21.366Z,99786.66
2022-08-03T14:40:50.145Z,99780.34
2022-08-03T14:43:20.377Z,99769.78
2022-08-03T14:45:52.311Z,99770.22
2022-08-03T14:50:27.989Z,99768.13
2022-08-03T14:51:10.474Z,99762.38
2022-08-03T14:53:39.133Z,99764.84
2022-08-03T14:56:10.526Z,99762.94
2022-08-03T14:58:39.619Z,99766.03
2022-08-03T15:02:06.522Z,99764.56
2022-08-03T15:03:58.605Z,99758.03
2022-08-03T15:06:27.206Z,99755.44
2022-08-03T15:09:13.957Z,99756.81
2022-08-03T15:11:44.523Z,99751.25
2022-08-03T15:14:14.677Z,99746.38
2022-08-03T15:16:45.062Z,99741.53
2022-08-03T15:20:03.744Z,99742.75
2022-08-03T15:22:02.483Z,99744.47
2022-08-03T15:24:30.919Z,99740.53
2022-08-03T15:26:59.703Z,99748.66
2022-08-03T15:30:07.741Z,99735.63
2022-08-03T15:32:18.122Z,99730.72
2022-08-03T15:34:50.386Z,99725.88
2022-08-03T15:37:20.905Z,99725.31
2022-08-03T15:39:58.941Z,99731.69
2022-08-03T15:42:30.959Z,99736.69
2022-08-03T15:45:00.221Z,99722.63
2022-08-03T15:47:30.545Z,99731.44
2022-08-03T15:49:59.489Z,99732.41
2022-08-03T15:52:27.814Z,99723.00
2022-08-03T15:54:56.345Z,99726.34
2022-08-03T15:57:25.946Z,99728.31
2022-08-03T15:59:54.430Z,99727.72
2022-08-03T16:02:23.280Z,99735.78
2022-08-03T16:04:54.415Z,99720.25
2022-08-03T16:07:38.429Z,99734.63
2022-08-03T16:10:08.211Z,99724.13
2022-08-03T16:12:37.385Z,99721.81
2022-08-03T16:15:07.674Z,99717.97
2022-08-03T16:17:36.029Z,99724.44
2022-08-03T16:20:10.558Z,99720.19
2022-08-03T16:22:55.736Z,99718.03
2022-08-03T16:25:24.505Z,99706.66
2022-08-03T16:27:58.386Z,99710.16
2022-08-03T16:30:35.542Z,99711.06
2022-08-03T16:33:04.478Z,99709.78
2022-08-03T16:35:34.674Z,99701.59
2022-08-03T16:38:09.263Z,99706.72
2022-08-03T16:40:38.609Z,99709.25
2022-08-03T16:43:18.990Z,99717.06
2022-08-03T16:45:48.957Z,99710.56
2022-08-03T16:48:18.418Z,99710.00
2022-08-03T16:50:48.398Z,99706.13
2022-08-03T16:53:33.235Z,99710.72
2022-08-03T16:56:10.788Z,99715.28
2022-08-03T16:58:41.368Z,99709.28
2022-08-03T17:01:21.878Z,99718.19
2022-08-03T17:04:01.621Z,99703.59
2022-08-03T17:06:36.273Z,99709.22
2022-08-03T17:09:09.008Z,99704.41
2022-08-03T17:11:44.135Z,99700.50
2022-08-03T17:14:17.199Z,99701.19
2022-08-03T17:16:52.617Z,99704.53
2022-08-03T17:19:23.973Z,99705.00
2022-08-03T17:22:04.310Z,99701.19
2022-08-03T17:24:41.306Z,99692.38
2022-08-03T17:27:23.104Z,99700.59
2022-08-03T17:30:10.500Z,99699.00
2022-08-03T17:32:52.643Z,99701.34
2022-08-03T17:35:38.619Z,99698.84
2022-08-03T17:38:13.798Z,99693.69
2022-08-03T17:40:50.087Z,99700.22
2022-08-03T17:44:13.477Z,99701.69
2022-08-03T17:46:12.334Z,99697.78
2022-08-03T17:48:42.578Z,99702.41
2022-08-03T17:51:19.087Z,99699.81
2022-08-03T17:54:01.628Z,99704.38
2022-08-03T17:59:52.125Z,99705.53
2022-08-03T18:03:10.868Z,99704.41
2022-08-03T18:06:10.670Z,99701.78
2022-08-03T18:08:32.382Z,99710.28
2022-08-03T18:11:09.908Z,99702.06
2022-08-03T18:13:58.047Z,99710.44
2022-08-03T18:16:34.332Z,99709.91
2022-08-03T18:19:13.434Z,99707.69
2022-08-03T18:22:03.445Z,99714.28
2022-08-03T18:24:32.712Z,99708.59
2022-08-03T18:27:05.403Z,99708.06
2022-08-03T18:29:37.148Z,99700.97
2022-08-03T18:35:03.693Z,99705.06
2022-08-03T18:37:51.887Z,99707.34
2022-08-03T18:40:22.288Z,99707.81
2022-08-03T18:42:53.019Z,99711.16
2022-08-03T18:45:57.132Z,99705.09
2022-08-03T18:48:27.131Z,99707.66
2022-08-03T18:51:02.723Z,99705.84
2022-08-03T18:54:03.978Z,99701.72
2022-08-03T18:56:43.248Z,99705.09
2022-08-03T18:59:30.588Z,99709.31
2022-08-03T19:02:06.949Z,99706.28
2022-08-03T19:04:45.485Z,99699.00
2022-08-03T19:07:25.372Z,99708.78
2022-08-03T19:09:56.861Z,99713.38
2022-08-03T19:12:37.857Z,99701.97
2022-08-03T19:15:13.539Z,99712.13
2022-08-03T19:17:52.911Z,99711.00
2022-08-03T19:20:27.004Z,99723.00
2022-08-03T19:23:00.792Z,99716.66
2022-08-03T19:25:34.737Z,99724.09
2022-08-03T19:28:05.889Z,99719.94
2022-08-03T19:30:39.778Z,99718.25
2022-08-03T19:33:10.973Z,99716.94
2022-08-03T19:35:51.105Z,99723.44
2022-08-03T19:38:27.632Z,99724.06
2022-08-03T19:41:17.361Z,99720.72
2022-08-03T19:44:23.418Z,99726.06
2022-08-03T19:46:59.418Z,99720.38
2022-08-03T19:50:06.200Z,99725.81
2022-08-03T19:52:31.897Z,99727.09
2022-08-03T19:55:06.746Z,99722.78
2022-08-03T19:57:40.664Z,99728.16
2022-08-03T20:00:15.114Z,99722.91
2022-08-03T20:02:45.955Z,99729.88
2022-08-03T20:05:15.835Z,99729.91
2022-08-03T20:07:47.583Z,99726.44
2022-08-03T20:10:18.230Z,99730.78
2022-08-03T20:12:48.404Z,99727.31
2022-08-03T20:15:30.834Z,99730.81
2022-08-03T20:18:02.643Z,99735.38
2022-08-03T20:20:33.976Z,99725.16
2022-08-03T20:23:08.658Z,99727.31
2022-08-03T20:25:57.123Z,99725.69
2022-08-03T20:28:33.057Z,99728.09
2022-08-03T20:31:02.202Z,99730.22
2022-08-03T20:33:46.383Z,99732.91
2022-08-03T20:36:21.128Z,99730.25
2022-08-03T20:38:51.982Z,99736.66
2022-08-03T20:41:21.202Z,99733.69
2022-08-03T20:43:51.074Z,99739.59
2022-08-03T20:46:32.005Z,99733.41
2022-08-03T20:49:09.069Z,99733.69
2022-08-03T20:51:49.727Z,99735.31
2022-08-03T20:54:29.681Z,99734.06
2022-08-03T20:57:00.728Z,99730.78
2022-08-03T20:59:50.092Z,99732.34
2022-08-03T21:02:29.851Z,99728.78
2022-08-03T21:05:03.002Z,99729.84
2022-08-03T21:07:45.502Z,99726.97
2022-08-03T21:10:29.334Z,99725.03
2022-08-03T21:12:55.925Z,99704.00
2022-08-03T21:12:58.266Z,99713.31
2022-08-03T21:13:15.997Z,99730.03
2022-08-03T21:16:06.673Z,99727.78
2022-08-03T21:18:47.178Z,99724.28
2022-08-03T21:21:23.490Z,99723.81
2022-08-03T21:23:54.559Z,99732.09
2022-08-03T21:26:26.548Z,99715.13
2022-08-03T21:28:56.907Z,99719.31
2022-08-03T21:31:26.938Z,99717.88
2022-08-03T21:33:58.051Z,99716.03
2022-08-03T21:36:32.219Z,99719.25
2022-08-03T21:39:01.511Z,99714.38
2022-08-03T21:41:33.275Z,99718.88
2022-08-03T21:44:03.293Z,99714.19
2022-08-03T21:46:36.646Z,99717.50
2022-08-03T21:50:05.503Z,99719.63
2022-08-03T21:52:03.966Z,99715.31
2022-08-03T21:54:37.128Z,99710.19
2022-08-03T21:57:12.810Z,99712.44
2022-08-03T21:59:48.972Z,99709.28
2022-08-03T22:02:24.084Z,99703.47
2022-08-03T22:04:56.202Z,99710.28
2022-08-03T22:07:28.623Z,99717.53
2022-08-03T22:09:59.405Z,99717.56
2022-08-03T22:12:31.931Z,99707.75
2022-08-03T22:15:02.438Z,99713.06
2022-08-03T22:17:54.748Z,99707.94
2022-08-03T22:20:22.959Z,99713.28
2022-08-03T22:22:57.043Z,99710.84
2022-08-03T22:25:30.595Z,99711.84
2022-08-03T22:28:03.188Z,99712.16
2022-08-03T22:30:33.189Z,99710.41
2022-08-03T22:33:05.372Z,99707.81
2022-08-03T22:35:47.651Z,99708.41
2022-08-03T22:38:19.538Z,99715.25
2022-08-03T22:40:50.865Z,99716.09
2022-08-03T22:43:24.063Z,99717.28
2022-08-03T22:46:10.239Z,99726.75
2022-08-03T22:48:41.819Z,99718.47
2022-08-03T22:51:11.483Z,99715.25
2022-08-03T22:53:41.717Z,99718.41
2022-08-03T22:56:10.060Z,99721.81
2022-08-03T22:58:38.376Z,99708.78
2022-08-03T23:01:09.557Z,99713.78
2022-08-03T23:04:00.056Z,99706.78
2022-08-03T23:06:34.766Z,99705.63
2022-08-03T23:09:07.695Z,99707.31
2022-08-03T23:11:45.325Z,99707.31
2022-08-03T23:14:19.921Z,99708.53
2022-08-03T23:16:51.509Z,99711.03
2022-08-03T23:19:25.036Z,99710.25
2022-08-03T23:22:02.423Z,99697.69
2022-08-03T23:24:39.211Z,99694.28
2022-08-03T23:27:09.608Z,99700.50
2022-08-03T23:29:39.873Z,99693.81
2022-08-03T23:32:09.396Z,99693.97
2022-08-03T23:34:58.267Z,99697.88
2022-08-03T23:37:28.751Z,99692.97
2022-08-03T23:39:59.485Z,99695.81
2022-08-03T23:42:28.347Z,99693.69
2022-08-03T23:44:59.404Z,99695.75
2022-08-03T23:47:46.711Z,99694.50
2022-08-03T23:50:17.978Z,99695.44
2022-08-03T23:52:58.080Z,99694.47
2022-08-03T23:55:54.006Z,99689.28
2022-08-03T23:58:42.699Z,99686.47
